Time;durP1;ratioP1;P1;durP2;ratioP2;P2;SDS_P1;SDS_P2;PMS_P1;PMS_P2;Temp;Humidity;BMP_temperature;BMP_pressure;BME280_temperature;BME280_humidity;BME280_pressure;Samples;Min_cycle;Max_cycle;Signal;HPM_P1;HPM_P2
2021/08/15 00:00:17;;;;;;;;;;;18.70;99.90;;;;;;5056461;28;19912;-79
2021/08/15 00:02:43;;;;;;;;;;;18.60;99.90;;;;;;5055306;28;20054;-79
2021/08/15 00:05:09;;;;;;;;;;;18.60;99.90;;;;;;5055257;28;20435;-79
2021/08/15 00:07:35;;;;;;;;;;;18.60;99.90;;;;;;5056329;28;19911;-79
2021/08/15 00:10:01;;;;;;;;;;;18.60;99.90;;;;;;5059653;28;19905;-79
2021/08/15 00:12:26;;;;;;;;;;;18.60;99.90;;;;;;5060281;28;19915;-78
2021/08/15 00:14:52;;;;;;;;;;;18.60;99.90;;;;;;5058985;28;19909;-78
2021/08/15 00:17:17;;;;;;;;;;;18.50;99.90;;;;;;5059485;28;19958;-78
2021/08/15 00:19:43;;;;;;;;;;;18.30;99.90;;;;;;5059884;28;19908;-78
2021/08/15 00:22:09;;;;;;;;;;;18.20;99.90;;;;;;5058317;28;19917;-80
2021/08/15 00:24:36;;;;;;;;;;;18.20;99.90;;;;;;5058796;28;19911;-79
2021/08/15 00:27:01;;;;;;;;;;;18.20;99.90;;;;;;5059044;28;20549;-79
2021/08/15 00:29:27;;;;;;;;;;;18.20;99.90;;;;;;5058712;28;19912;-79
2021/08/15 00:31:53;;;;;;;;;;;18.10;99.90;;;;;;5058464;28;19955;-79
2021/08/15 00:34:18;;;;;;;;;;;18.10;99.90;;;;;;5058507;28;20332;-78
2021/08/15 00:36:44;;;;;;;;;;;18.10;99.90;;;;;;5058347;28;20003;-78
2021/08/15 00:39:09;;;;;;;;;;;18.20;99.90;;;;;;5056791;28;20363;-78
2021/08/15 00:41:35;;;;;;;;;;;18.30;99.90;;;;;;5054256;28;20263;-78
2021/08/15 00:44:03;;;;;;;;;;;18.30;99.90;;;;;;5055406;28;19904;-78
2021/08/15 00:46:30;;;;;;;;;;;18.30;99.90;;;;;;5054957;28;20361;-78
2021/08/15 00:48:55;;;;;;;;;;;18.30;99.90;;;;;;5054928;28;20401;-78
2021/08/15 00:51:21;;;;;;;;;;;18.20;99.90;;;;;;5054761;28;19915;-78
2021/08/15 00:53:47;;;;;;;;;;;18.10;99.90;;;;;;5054346;28;19927;-79
2021/08/15 00:56:12;;;;;;;;;;;17.90;99.90;;;;;;5054849;28;20270;-78
2021/08/15 00:58:38;;;;;;;;;;;17.80;99.90;;;;;;5053638;28;20349;-78
2021/08/15 01:01:05;;;;;;;;;;;17.80;99.90;;;;;;5053599;28;19919;-78
2021/08/15 01:03:31;;;;;;;;;;;17.70;99.90;;;;;;5055048;28;19950;-79
2021/08/15 01:05:59;;;;;;;;;;;17.50;99.90;;;;;;5054195;28;19908;-79
2021/08/15 01:08:29;;;;;;;;;;;17.30;99.90;;;;;;5053155;28;20388;-79
2021/08/15 01:10:55;;;;;;;;;;;17.20;99.90;;;;;;5053422;28;19911;-79
2021/08/15 01:13:21;;;;;;;;;;;17.10;99.90;;;;;;5056104;28;19905;-79
2021/08/15 01:15:46;;;;;;;;;;;17.10;99.90;;;;;;5055475;28;20388;-79
2021/08/15 01:18:16;;;;;;;;;;;17.10;99.90;;;;;;5054439;28;19954;-80
2021/08/15 01:20:42;;;;;;;;;;;17.10;99.90;;;;;;5054852;28;20003;-79
2021/08/15 01:23:07;;;;;;;;;;;17.10;99.90;;;;;;5055796;28;19929;-79
2021/08/15 01:25:33;;;;;;;;;;;17.10;99.90;;;;;;5054871;28;20354;-79
2021/08/15 01:27:58;;;;;;;;;;;17.10;99.90;;;;;;5054952;28;19916;-79
2021/08/15 01:30:26;;;;;;;;;;;17.10;99.90;;;;;;5054906;28;20308;-79
2021/08/15 01:32:51;;;;;;;;;;;17.20;99.90;;;;;;5054918;28;19905;-79
2021/08/15 01:35:17;;;;;;;;;;;17.10;99.90;;;;;;5054910;28;19909;-79
2021/08/15 01:37:43;;;;;;;;;;;17.30;99.90;;;;;;5055355;28;20007;-79
2021/08/15 01:40:08;;;;;;;;;;;17.30;99.90;;;;;;5056879;28;19908;-79
2021/08/15 01:42:34;;;;;;;;;;;17.30;99.90;;;;;;5057133;28;20266;-79
2021/08/15 01:45:00;;;;;;;;;;;17.20;99.90;;;;;;5054981;28;19935;-79
2021/08/15 01:47:26;;;;;;;;;;;17.20;99.90;;;;;;5054982;28;19904;-79
2021/08/15 01:49:52;;;;;;;;;;;17.30;99.90;;;;;;5054701;28;20003;-79
2021/08/15 01:52:17;;;;;;;;;;;17.20;99.90;;;;;;5055251;28;20021;-80
2021/08/15 01:54:43;;;;;;;;;;;17.20;99.90;;;;;;5055470;28;19905;-79
2021/08/15 01:57:08;;;;;;;;;;;17.00;99.90;;;;;;5054903;28;20403;-79
2021/08/15 01:59:34;;;;;;;;;;;16.90;99.90;;;;;;5054590;28;19904;-80
2021/08/15 02:02:00;;;;;;;;;;;16.60;99.90;;;;;;5055374;28;20028;-80
2021/08/15 02:04:25;;;;;;;;;;;16.40;99.90;;;;;;5055646;28;19909;-80
2021/08/15 02:06:50;;;;;;;;;;;16.40;99.90;;;;;;5056927;28;20357;-80
2021/08/15 02:09:16;;;;;;;;;;;16.40;99.90;;;;;;5057388;28;19912;-79
2021/08/15 02:11:42;;;;;;;;;;;16.40;99.90;;;;;;5056463;28;20325;-80
2021/08/15 02:14:07;;;;;;;;;;;16.40;99.90;;;;;;5056287;28;20336;-80
2021/08/15 02:16:33;;;;;;;;;;;16.30;99.90;;;;;;5056732;28;19917;-80
2021/08/15 02:18:58;;;;;;;;;;;16.30;99.90;;;;;;5056156;28;19916;-80
2021/08/15 02:21:24;;;;;;;;;;;16.30;99.90;;;;;;5054395;28;19959;-80
2021/08/15 02:23:49;;;;;;;;;;;16.30;99.90;;;;;;5053889;28;19951;-80
2021/08/15 02:26:15;;;;;;;;;;;16.30;99.90;;;;;;5055873;28;19905;-80
2021/08/15 02:28:40;;;;;;;;;;;16.20;99.90;;;;;;5055081;28;19905;-80
2021/08/15 02:31:06;;;;;;;;;;;16.20;99.90;;;;;;5054838;28;19905;-80
2021/08/15 02:33:31;;;;;;;;;;;16.20;99.90;;;;;;5055433;28;19968;-79
2021/08/15 02:35:57;;;;;;;;;;;16.10;99.90;;;;;;5056242;28;19905;-80
2021/08/15 02:38:22;;;;;;;;;;;16.10;99.90;;;;;;5054509;28;19979;-80
2021/08/15 02:40:48;;;;;;;;;;;16.00;99.90;;;;;;5054887;28;19934;-80
2021/08/15 02:43:14;;;;;;;;;;;16.00;99.90;;;;;;5054796;28;19905;-80
2021/08/15 02:45:39;;;;;;;;;;;16.00;99.90;;;;;;5058046;28;19999;-80
2021/08/15 02:48:05;;;;;;;;;;;16.10;99.90;;;;;;5058794;28;20413;-80
2021/08/15 02:50:30;;;;;;;;;;;16.10;99.90;;;;;;5058970;28;19958;-79
2021/08/15 02:52:56;;;;;;;;;;;16.10;99.90;;;;;;5059644;28;19904;-80
2021/08/15 02:55:21;;;;;;;;;;;16.10;99.90;;;;;;5058649;28;19916;-80
2021/08/15 02:57:47;;;;;;;;;;;16.20;99.90;;;;;;5059853;28;19909;-79
2021/08/15 03:00:13;;;;;;;;;;;16.30;99.90;;;;;;5057778;28;20304;-79
2021/08/15 03:02:39;;;;;;;;;;;16.40;99.90;;;;;;5057870;28;19908;-80
2021/08/15 03:05:05;;;;;;;;;;;16.40;99.90;;;;;;5057847;28;20000;-80
2021/08/15 03:07:30;;;;;;;;;;;16.30;99.90;;;;;;5059191;28;19905;-80
2021/08/15 03:09:56;;;;;;;;;;;16.30;99.90;;;;;;5057632;28;19905;-79
2021/08/15 03:12:21;;;;;;;;;;;16.40;99.90;;;;;;5059138;28;19968;-79
2021/08/15 03:14:47;;;;;;;;;;;16.40;99.90;;;;;;5057870;28;19955;-80
2021/08/15 03:17:13;;;;;;;;;;;16.40;99.90;;;;;;5057294;28;19939;-80
2021/08/15 03:19:38;;;;;;;;;;;16.30;99.90;;;;;;5057604;28;19905;-80
2021/08/15 03:22:05;;;;;;;;;;;16.30;99.90;;;;;;5057610;28;19908;-80
2021/08/15 03:24:30;;;;;;;;;;;16.20;99.90;;;;;;5058836;28;19911;-80
2021/08/15 03:26:56;;;;;;;;;;;16.30;99.90;;;;;;5057893;28;20330;-79
2021/08/15 03:29:21;;;;;;;;;;;16.40;99.90;;;;;;5057745;28;20006;-79
2021/08/15 03:31:47;;;;;;;;;;;16.50;99.90;;;;;;5057985;28;20369;-80
2021/08/15 03:34:12;;;;;;;;;;;16.40;99.90;;;;;;5057842;28;19904;-79
2021/08/15 03:36:38;;;;;;;;;;;16.30;99.90;;;;;;5058119;28;19904;-80
2021/08/15 03:39:04;;;;;;;;;;;16.40;99.90;;;;;;5057851;28;20319;-80
2021/08/15 03:41:29;;;;;;;;;;;16.40;99.90;;;;;;5056979;28;20007;-79
2021/08/15 03:43:55;;;;;;;;;;;16.40;99.90;;;;;;5057787;28;20018;-79
2021/08/15 03:46:21;;;;;;;;;;;16.30;99.90;;;;;;5055099;28;20424;-79
2021/08/15 03:48:46;;;;;;;;;;;16.30;99.90;;;;;;5055514;28;20358;-79
2021/08/15 03:51:12;;;;;;;;;;;16.20;99.90;;;;;;5054743;28;19908;-79
2021/08/15 03:53:37;;;;;;;;;;;16.30;99.90;;;;;;5054699;28;19916;-79
2021/08/15 03:56:03;;;;;;;;;;;16.40;99.90;;;;;;5054504;28;19905;-79
2021/08/15 03:58:29;;;;;;;;;;;16.40;99.90;;;;;;5054981;28;19912;-79
2021/08/15 04:00:54;;;;;;;;;;;16.30;99.90;;;;;;5055805;28;20331;-79
2021/08/15 04:03:20;;;;;;;;;;;16.20;99.90;;;;;;5056308;28;19932;-80
2021/08/15 04:05:46;;;;;;;;;;;16.10;99.90;;;;;;5055767;28;19905;-80
2021/08/15 04:08:12;;;;;;;;;;;16.00;99.90;;;;;;5057094;28;20059;-80
2021/08/15 04:10:37;;;;;;;;;;;16.00;99.90;;;;;;5057156;28;19912;-80
2021/08/15 04:13:03;;;;;;;;;;;15.90;99.90;;;;;;5056465;28;19908;-80
2021/08/15 04:15:29;;;;;;;;;;;15.70;99.90;;;;;;5056584;28;19927;-80
2021/08/15 04:17:54;;;;;;;;;;;15.80;99.90;;;;;;5056211;28;19905;-80
2021/08/15 04:20:21;;;;;;;;;;;15.90;99.90;;;;;;5056428;28;20008;-79
2021/08/15 04:22:46;;;;;;;;;;;15.90;99.90;;;;;;5054922;28;19912;-79
2021/08/15 04:25:12;;;;;;;;;;;16.10;99.90;;;;;;5057215;28;19908;-79
2021/08/15 04:27:37;;;;;;;;;;;16.10;99.90;;;;;;5056968;28;19971;-80
2021/08/15 04:30:04;;;;;;;;;;;16.10;99.90;;;;;;5057109;28;19905;-80
2021/08/15 04:32:29;;;;;;;;;;;16.10;99.90;;;;;;5056704;28;20376;-80
2021/08/15 04:34:55;;;;;;;;;;;15.90;99.90;;;;;;5056954;28;19959;-80
2021/08/15 04:37:20;;;;;;;;;;;15.80;99.90;;;;;;5056858;28;19909;-80
2021/08/15 04:39:46;;;;;;;;;;;15.80;99.90;;;;;;5056744;28;19932;-80
2021/08/15 04:42:12;;;;;;;;;;;15.90;99.90;;;;;;5055955;28;19931;-80
2021/08/15 04:44:37;;;;;;;;;;;16.00;99.90;;;;;;5055893;28;19912;-80
2021/08/15 04:47:03;;;;;;;;;;;16.00;99.90;;;;;;5056059;28;19919;-79
2021/08/15 04:49:29;;;;;;;;;;;15.90;99.90;;;;;;5056639;28;19916;-80
2021/08/15 04:51:55;;;;;;;;;;;16.00;99.90;;;;;;5057796;28;20281;-79
2021/08/15 04:54:27;;;;;;;;;;;16.00;99.90;;;;;;5056933;28;19915;-80
2021/08/15 04:56:56;;;;;;;;;;;16.00;99.90;;;;;;5057521;28;20350;-80
2021/08/15 04:59:21;;;;;;;;;;;15.90;99.90;;;;;;5056659;28;19909;-80
2021/08/15 05:01:47;;;;;;;;;;;15.80;99.90;;;;;;5056800;28;19981;-80
2021/08/15 05:04:12;;;;;;;;;;;15.80;99.90;;;;;;5056881;28;19909;-79
2021/08/15 05:06:38;;;;;;;;;;;15.90;99.90;;;;;;5057139;28;19905;-80
2021/08/15 05:09:03;;;;;;;;;;;16.00;99.90;;;;;;5056539;28;19904;-80
2021/08/15 05:11:29;;;;;;;;;;;16.10;99.90;;;;;;5056729;28;19932;-80
2021/08/15 05:13:54;;;;;;;;;;;16.20;99.90;;;;;;5056480;28;19999;-80
2021/08/15 05:16:20;;;;;;;;;;;16.10;99.90;;;;;;5056175;28;19921;-79
2021/08/15 05:18:45;;;;;;;;;;;16.10;99.90;;;;;;5055575;28;20369;-80
2021/08/15 05:21:11;;;;;;;;;;;16.00;99.90;;;;;;5055956;28;19909;-80
2021/08/15 05:23:37;;;;;;;;;;;16.00;99.90;;;;;;5055828;28;19912;-80
2021/08/15 05:26:02;;;;;;;;;;;16.00;99.90;;;;;;5057226;28;20101;-80
2021/08/15 05:28:28;;;;;;;;;;;16.00;99.90;;;;;;5056323;28;19912;-80
2021/08/15 05:30:53;;;;;;;;;;;15.90;99.90;;;;;;5056479;28;19905;-80
2021/08/15 05:33:19;;;;;;;;;;;16.00;99.90;;;;;;5055990;28;19963;-80
2021/08/15 05:35:44;;;;;;;;;;;16.00;99.90;;;;;;5055896;28;20331;-80
2021/08/15 05:38:10;;;;;;;;;;;16.20;99.90;;;;;;5057023;28;20324;-80
2021/08/15 05:40:35;;;;;;;;;;;16.20;99.90;;;;;;5058338;28;19909;-79
2021/08/15 05:43:01;;;;;;;;;;;16.30;99.90;;;;;;5056899;28;19905;-80
2021/08/15 05:45:26;;;;;;;;;;;16.20;99.90;;;;;;5056022;28;19911;-80
2021/08/15 05:47:52;;;;;;;;;;;16.20;99.90;;;;;;5056082;28;19936;-80
2021/08/15 05:50:18;;;;;;;;;;;16.10;99.90;;;;;;5057636;28;19904;-80
2021/08/15 05:52:43;;;;;;;;;;;16.10;99.90;;;;;;5058210;28;19905;-80
2021/08/15 05:55:09;;;;;;;;;;;16.20;99.90;;;;;;5056051;28;19909;-80
2021/08/15 05:57:34;;;;;;;;;;;16.20;99.90;;;;;;5055675;28;20204;-80
2021/08/15 06:00:00;;;;;;;;;;;16.30;99.90;;;;;;5055463;28;19963;-80
2021/08/15 06:02:26;;;;;;;;;;;16.40;99.90;;;;;;5056031;28;19916;-80
2021/08/15 06:04:51;;;;;;;;;;;16.50;99.90;;;;;;5055609;28;19905;-80
2021/08/15 06:07:17;;;;;;;;;;;16.70;99.90;;;;;;5055391;28;19911;-80
2021/08/15 06:09:42;;;;;;;;;;;16.80;99.90;;;;;;5055501;28;20305;-80
2021/08/15 06:12:08;;;;;;;;;;;16.90;99.90;;;;;;5054923;28;19951;-80
2021/08/15 06:14:34;;;;;;;;;;;17.10;99.90;;;;;;5054776;28;19940;-80
2021/08/15 06:16:59;;;;;;;;;;;17.30;99.90;;;;;;5054563;28;19924;-80
2021/08/15 06:19:25;;;;;;;;;;;17.30;99.90;;;;;;5055062;28;20265;-80
2021/08/15 06:21:50;;;;;;;;;;;17.50;99.90;;;;;;5059717;28;19930;-80
2021/08/15 06:24:16;;;;;;;;;;;17.50;99.90;;;;;;5059707;28;19912;-80
2021/08/15 06:26:41;;;;;;;;;;;17.50;99.90;;;;;;5058115;28;19904;-80
2021/08/15 06:29:07;;;;;;;;;;;17.60;99.90;;;;;;5058500;28;19905;-80
2021/08/15 06:31:32;;;;;;;;;;;17.70;99.90;;;;;;5059216;28;19909;-80
2021/08/15 06:33:58;;;;;;;;;;;17.80;99.90;;;;;;5059671;28;19905;-80
2021/08/15 06:36:24;;;;;;;;;;;17.90;99.90;;;;;;5059413;28;19904;-80
2021/08/15 06:38:49;;;;;;;;;;;18.00;99.90;;;;;;5059411;28;19909;-81
2021/08/15 06:41:15;;;;;;;;;;;18.00;99.90;;;;;;5059019;28;19908;-80
2021/08/15 06:43:41;;;;;;;;;;;18.20;99.90;;;;;;5058240;28;20324;-80
2021/08/15 06:46:06;;;;;;;;;;;18.20;99.90;;;;;;5059125;28;20035;-81
2021/08/15 06:48:31;;;;;;;;;;;18.10;99.90;;;;;;5057576;28;20272;-80
2021/08/15 06:50:58;;;;;;;;;;;18.20;99.90;;;;;;5058198;28;19911;-80
2021/08/15 06:53:25;;;;;;;;;;;18.30;99.90;;;;;;5057934;28;19905;-80
2021/08/15 06:55:50;;;;;;;;;;;18.50;99.90;;;;;;5056538;28;19959;-80
2021/08/15 06:58:16;;;;;;;;;;;18.80;99.90;;;;;;5056811;28;19905;-80
2021/08/15 07:00:42;;;;;;;;;;;19.00;99.90;;;;;;5057171;28;19908;-80
2021/08/15 07:03:07;;;;;;;;;;;19.00;99.90;;;;;;5056297;28;19962;-80
2021/08/15 07:05:33;;;;;;;;;;;18.80;99.90;;;;;;5057707;28;19904;-80
2021/08/15 07:07:59;;;;;;;;;;;18.80;99.90;;;;;;5057395;28;19987;-80
2021/08/15 07:10:25;;;;;;;;;;;18.90;99.90;;;;;;5057493;28;19991;-80
2021/08/15 07:12:53;;;;;;;;;;;19.20;99.90;;;;;;5058385;28;19905;-80
2021/08/15 07:15:20;;;;;;;;;;;19.60;99.90;;;;;;5057421;28;20320;-80
2021/08/15 07:17:46;;;;;;;;;;;19.80;99.90;;;;;;5056674;28;19909;-80
2021/08/15 07:20:11;;;;;;;;;;;20.00;99.90;;;;;;5057192;28;19905;-80
2021/08/15 07:22:37;;;;;;;;;;;20.20;99.90;;;;;;5058914;28;19909;-80
2021/08/15 07:25:03;;;;;;;;;;;20.50;99.90;;;;;;5057032;28;19905;-80
2021/08/15 07:27:29;;;;;;;;;;;20.70;99.90;;;;;;5058258;28;19905;-80
2021/08/15 07:29:54;;;;;;;;;;;20.60;99.90;;;;;;5057011;28;19905;-81
2021/08/15 07:32:20;;;;;;;;;;;20.90;99.90;;;;;;5057327;28;20298;-80
2021/08/15 07:34:45;;;;;;;;;;;21.20;99.90;;;;;;5057563;28;19904;-80
2021/08/15 07:37:11;;;;;;;;;;;21.80;99.90;;;;;;5058610;28;19971;-80
2021/08/15 07:39:37;;;;;;;;;;;23.00;99.90;;;;;;5057303;28;19905;-80
2021/08/15 07:42:02;;;;;;;;;;;24.20;99.90;;;;;;5058603;28;19967;-80
2021/08/15 07:44:28;;;;;;;;;;;24.90;99.90;;;;;;5056775;28;20265;-80
2021/08/15 07:46:53;;;;;;;;;;;24.90;99.90;;;;;;5058397;28;20346;-80
2021/08/15 07:49:19;;;;;;;;;;;25.00;99.90;;;;;;5057277;28;19913;-80
2021/08/15 07:51:44;;;;;;;;;;;25.40;99.90;;;;;;5056963;28;20334;-80
2021/08/15 07:54:10;;;;;;;;;;;25.50;99.90;;;;;;5058934;28;19908;-80
2021/08/15 07:56:35;;;;;;;;;;;25.30;99.90;;;;;;5057909;28;19999;-80
2021/08/15 07:59:01;;;;;;;;;;;24.70;99.90;;;;;;5056458;28;19904;-80
2021/08/15 08:01:26;;;;;;;;;;;24.60;99.90;;;;;;5057375;28;20437;-80
2021/08/15 08:03:52;;;;;;;;;;;24.80;99.90;;;;;;5058228;28;19912;-80
2021/08/15 08:06:17;;;;;;;;;;;24.80;99.90;;;;;;5055966;28;19905;-80
2021/08/15 08:08:43;;;;;;;;;;;25.20;99.90;;;;;;5056965;28;20067;-80
2021/08/15 08:11:08;;;;;;;;;;;25.80;99.90;;;;;;5057320;28;19908;-80
2021/08/15 08:13:34;;;;;;;;;;;25.70;99.90;;;;;;5057087;28;19915;-81
2021/08/15 08:15:59;;;;;;;;;;;26.20;99.90;;;;;;5056151;28;20197;-78
2021/08/15 08:18:25;;;;;;;;;;;27.00;99.90;;;;;;5052240;28;19904;-78
2021/08/15 08:20:51;;;;;;;;;;;27.50;99.90;;;;;;5053610;28;19912;-78
2021/08/15 08:23:16;;;;;;;;;;;27.30;99.90;;;;;;5052026;28;19932;-78
2021/08/15 08:25:44;;;;;;;;;;;27.70;99.60;;;;;;5053400;28;20388;-78
2021/08/15 08:28:09;;;;;;;;;;;26.80;99.90;;;;;;5051739;28;20182;-78
2021/08/15 08:30:35;;;;;;;;;;;26.50;99.80;;;;;;5052897;28;19991;-78
2021/08/15 08:33:01;;;;;;;;;;;26.10;99.80;;;;;;5051860;28;19905;-78
2021/08/15 08:35:26;;;;;;;;;;;26.80;99.90;;;;;;5053937;28;19911;-79
2021/08/15 08:37:52;;;;;;;;;;;27.10;99.10;;;;;;5053899;28;19913;-78
2021/08/15 08:40:18;;;;;;;;;;;27.40;99.40;;;;;;5054341;28;19905;-78
2021/08/15 08:42:44;;;;;;;;;;;27.60;95.40;;;;;;5053531;28;20262;-78
2021/08/15 08:45:13;;;;;;;;;;;27.00;95.60;;;;;;5054966;28;20027;-78
2021/08/15 08:47:39;;;;;;;;;;;26.40;97.60;;;;;;5054187;28;20544;-78
2021/08/15 08:50:05;;;;;;;;;;;26.10;99.50;;;;;;5054017;28;19908;-78
2021/08/15 08:52:30;;;;;;;;;;;25.70;99.20;;;;;;5054089;28;19905;-78
2021/08/15 08:54:57;;;;;;;;;;;26.20;99.30;;;;;;5053806;28;19999;-79
2021/08/15 08:57:23;;;;;;;;;;;26.80;97.60;;;;;;5053977;28;20297;-79
2021/08/15 08:59:48;;;;;;;;;;;26.80;98.10;;;;;;5054438;28;19905;-79
2021/08/15 09:02:14;;;;;;;;;;;27.30;96.80;;;;;;5055459;28;19980;-79
2021/08/15 09:04:39;;;;;;;;;;;27.20;96.80;;;;;;5071469;28;19912;-78
2021/08/15 09:07:11;;;;;;;;;;;26.90;97.00;;;;;;5071222;28;19943;-79
2021/08/15 09:09:38;;;;;;;;;;;26.40;97.30;;;;;;5055945;28;19905;-79
2021/08/15 09:12:04;;;;;;;;;;;25.10;99.10;;;;;;5071172;28;19912;-79
2021/08/15 09:14:31;;;;;;;;;;;24.90;98.90;;;;;;5069815;28;20277;-79
2021/08/15 09:17:01;;;;;;;;;;;24.80;99.50;;;;;;5052278;28;19917;-79
2021/08/15 09:19:36;;;;;;;;;;;25.10;99.70;;;;;;5054494;28;20014;-79
2021/08/15 09:22:14;;;;;;;;;;;25.40;97.90;;;;;;5070111;28;19974;-78
2021/08/15 09:24:59;;;;;;;;;;;25.40;98.30;;;;;;5069885;28;20269;-78
2021/08/15 09:27:44;;;;;;;;;;;26.10;97.30;;;;;;5069703;28;19904;-78
2021/08/15 09:30:16;;;;;;;;;;;26.60;97.20;;;;;;5042512;28;20011;-80
2021/08/15 09:33:02;;;;;;;;;;;27.60;95.10;;;;;;5069210;28;20038;-79
2021/08/15 09:35:37;;;;;;;;;;;27.90;94.80;;;;;;5041938;28;20012;-78
2021/08/15 09:38:09;;;;;;;;;;;28.00;93.60;;;;;;5069121;28;20034;-78
2021/08/15 09:40:38;;;;;;;;;;;27.60;94.80;;;;;;5055123;28;19911;-78
2021/08/15 09:43:05;;;;;;;;;;;28.80;93.00;;;;;;5070553;28;20627;-78
2021/08/15 09:45:41;;;;;;;;;;;28.80;91.90;;;;;;5070858;28;20277;-78
2021/08/15 09:48:19;;;;;;;;;;;28.80;92.00;;;;;;5069646;28;19912;-78
2021/08/15 09:51:00;;;;;;;;;;;28.40;91.10;;;;;;5069650;28;19905;-78
2021/08/15 09:53:25;;;;;;;;;;;28.10;92.30;;;;;;5054126;28;19908;-78
2021/08/15 09:55:51;;;;;;;;;;;27.60;92.40;;;;;;5073770;28;19912;-79
2021/08/15 09:58:17;;;;;;;;;;;28.00;92.90;;;;;;5074331;28;19958;-79
2021/08/15 10:00:42;;;;;;;;;;;28.50;91.30;;;;;;5058535;28;19916;-79
2021/08/15 10:03:08;;;;;;;;;;;29.10;91.50;;;;;;5057876;28;19948;-79
2021/08/15 10:05:34;;;;;;;;;;;28.90;91.60;;;;;;5057154;28;20000;-79
2021/08/15 10:08:03;;;;;;;;;;;28.30;93.00;;;;;;5072515;28;20316;-79
2021/08/15 10:10:29;;;;;;;;;;;27.90;93.20;;;;;;5072177;28;19904;-80
2021/08/15 10:12:54;;;;;;;;;;;28.10;93.30;;;;;;5056392;28;19912;-81
2021/08/15 10:15:20;;;;;;;;;;;28.90;93.40;;;;;;5071676;28;19916;-78
2021/08/15 10:17:48;;;;;;;;;;;29.80;92.40;;;;;;5071249;28;20373;-78
2021/08/15 10:20:17;;;;;;;;;;;29.70;92.00;;;;;;5055394;28;19905;-78
2021/08/15 10:22:43;;;;;;;;;;;30.10;92.00;;;;;;5055544;28;19908;-79
2021/08/15 10:25:09;;;;;;;;;;;29.90;92.30;;;;;;5070912;28;19911;-79
2021/08/15 10:27:40;;;;;;;;;;;29.40;92.50;;;;;;5055545;28;19905;-79
2021/08/15 10:30:12;;;;;;;;;;;29.50;92.50;;;;;;5055528;28;20015;-79
2021/08/15 10:32:38;;;;;;;;;;;30.00;92.70;;;;;;5071124;28;19944;-79
2021/08/15 10:35:03;;;;;;;;;;;29.80;92.50;;;;;;5054948;28;20431;-78
2021/08/15 10:37:33;;;;;;;;;;;29.70;92.30;;;;;;5071286;28;19919;-78
2021/08/15 10:40:03;;;;;;;;;;;29.50;93.10;;;;;;5071009;28;19931;-78
2021/08/15 10:42:45;;;;;;;;;;;29.50;92.80;;;;;;5070938;28;19908;-78
2021/08/15 10:45:22;;;;;;;;;;;29.50;92.40;;;;;;5070602;28;19951;-78
2021/08/15 10:48:14;;;;;;;;;;;29.70;92.70;;;;;;5070370;28;19909;-79
2021/08/15 10:50:45;;;;;;;;;;;29.90;91.50;;;;;;5046992;28;19908;-78
2021/08/15 10:53:26;;;;;;;;;;;29.90;92.00;;;;;;5070340;28;20330;-79
2021/08/15 10:55:52;;;;;;;;;;;29.70;91.80;;;;;;5070441;28;19909;-79
2021/08/15 10:58:37;;;;;;;;;;;29.70;91.60;;;;;;5055624;28;20389;-79
2021/08/15 11:01:03;;;;;;;;;;;30.40;91.10;;;;;;5071105;28;20011;-79
2021/08/15 11:03:30;;;;;;;;;;;30.20;91.70;;;;;;5055838;28;19994;-79
2021/08/15 11:05:57;;;;;;;;;;;30.00;92.00;;;;;;5055338;28;19995;-79
2021/08/15 11:08:32;;;;;;;;;;;30.80;91.50;;;;;;5056224;28;19905;-78
2021/08/15 11:11:23;;;;;;;;;;;30.80;90.50;;;;;;5071853;28;19912;-78
2021/08/15 11:14:08;;;;;;;;;;;32.00;90.40;;;;;;5072327;28;19905;-78
2021/08/15 11:16:37;;;;;;;;;;;32.20;88.50;;;;;;5072254;28;19927;-78
2021/08/15 11:19:09;;;;;;;;;;;31.90;88.70;;;;;;5056422;28;19909;-78
2021/08/15 11:21:53;;;;;;;;;;;31.80;88.80;;;;;;5071811;28;20405;-78
2021/08/15 11:24:22;;;;;;;;;;;31.90;88.20;;;;;;5071203;28;19959;-78
2021/08/15 11:26:48;;;;;;;;;;;31.90;84.30;;;;;;5054947;28;19905;-78
2021/08/15 11:29:18;;;;;;;;;;;30.70;87.00;;;;;;5070363;28;19973;-78
2021/08/15 11:31:45;;;;;;;;;;;30.60;88.10;;;;;;5054954;28;19905;-78
2021/08/15 11:34:11;;;;;;;;;;;30.50;87.60;;;;;;5070557;28;19912;-78
2021/08/15 11:36:36;;;;;;;;;;;30.90;87.10;;;;;;5055185;28;20366;-78
2021/08/15 11:39:04;;;;;;;;;;;31.80;86.90;;;;;;5055325;28;19904;-78
2021/08/15 11:41:30;;;;;;;;;;;32.10;82.30;;;;;;5055226;28;20258;-79
2021/08/15 11:43:55;;;;;;;;;;;31.10;84.50;;;;;;5070847;28;19911;-79
2021/08/15 11:46:21;;;;;;;;;;;30.80;88.40;;;;;;5055824;28;19904;-79
2021/08/15 11:48:46;;;;;;;;;;;31.50;85.90;;;;;;5056185;28;19999;-78
2021/08/15 11:51:12;;;;;;;;;;;31.40;86.80;;;;;;5055512;28;19905;-78
2021/08/15 11:53:38;;;;;;;;;;;31.00;86.30;;;;;;5054664;28;19916;-78
2021/08/15 11:56:07;;;;;;;;;;;31.30;86.20;;;;;;5070939;28;19963;-78
2021/08/15 11:58:33;;;;;;;;;;;32.10;83.70;;;;;;5070485;28;19916;-78
2021/08/15 12:01:05;;;;;;;;;;;31.50;84.20;;;;;;5070945;28;19909;-78
2021/08/15 12:03:30;;;;;;;;;;;32.10;84.40;;;;;;5055485;28;19947;-78
2021/08/15 12:05:57;;;;;;;;;;;32.60;82.00;;;;;;5055639;28;19912;-78
2021/08/15 12:08:36;;;;;;;;;;;32.20;83.20;;;;;;5070569;28;19962;-78
2021/08/15 12:11:03;;;;;;;;;;;31.80;83.90;;;;;;5054875;28;19911;-78
2021/08/15 12:13:38;;;;;;;;;;;31.60;82.00;;;;;;5070116;28;20269;-78
2021/08/15 12:16:03;;;;;;;;;;;31.30;85.00;;;;;;5054422;28;19964;-78
2021/08/15 12:18:39;;;;;;;;;;;31.70;84.70;;;;;;5053713;28;19908;-78
2021/08/15 12:21:16;;;;;;;;;;;31.50;83.60;;;;;;5069828;28;19920;-78
2021/08/15 12:24:04;;;;;;;;;;;31.80;82.60;;;;;;5070557;28;19939;-78
2021/08/15 12:26:32;;;;;;;;;;;32.40;82.00;;;;;;5046747;28;19909;-78
2021/08/15 12:28:59;;;;;;;;;;;33.60;78.60;;;;;;5069598;28;19908;-78
2021/08/15 12:31:26;;;;;;;;;;;34.00;78.20;;;;;;5069690;28;20511;-79
2021/08/15 12:34:20;;;;;;;;;;;33.50;77.80;;;;;;5054732;28;19905;-78
2021/08/15 12:36:51;;;;;;;;;;;32.90;78.40;;;;;;5039783;28;19905;-78
2021/08/15 12:39:18;;;;;;;;;;;32.60;79.40;;;;;;5054192;28;19905;-79
2021/08/15 12:41:45;;;;;;;;;;;33.20;79.50;;;;;;5054099;28;19908;-79
2021/08/15 12:44:11;;;;;;;;;;;33.90;76.30;;;;;;5052283;28;19999;-78
2021/08/15 12:46:37;;;;;;;;;;;34.10;76.20;;;;;;5068845;28;19912;-78
2021/08/15 12:49:22;;;;;;;;;;;33.50;74.10;;;;;;5053160;28;19905;-78
2021/08/15 12:51:48;;;;;;;;;;;33.20;75.80;;;;;;5068171;28;19904;-78
2021/08/15 12:54:14;;;;;;;;;;;32.90;76.40;;;;;;5068618;28;19954;-78
2021/08/15 12:56:40;;;;;;;;;;;32.20;77.70;;;;;;5068446;28;19913;-78
2021/08/15 12:59:05;;;;;;;;;;;32.60;78.80;;;;;;5053361;28;19905;-78
2021/08/15 13:01:31;;;;;;;;;;;32.30;77.10;;;;;;5068210;28;19908;-78
2021/08/15 13:03:59;;;;;;;;;;;31.60;78.80;;;;;;5053245;28;19911;-78
2021/08/15 13:06:26;;;;;;;;;;;31.00;80.90;;;;;;5051979;28;19905;-78
2021/08/15 13:08:52;;;;;;;;;;;31.20;83.60;;;;;;5051462;28;20354;-78
2021/08/15 13:11:17;;;;;;;;;;;31.80;81.30;;;;;;5068379;28;20395;-78
2021/08/15 13:13:43;;;;;;;;;;;32.80;78.00;;;;;;5052699;28;19909;-78
2021/08/15 13:16:08;;;;;;;;;;;33.30;76.00;;;;;;5067586;28;19925;-78
2021/08/15 13:18:34;;;;;;;;;;;32.70;76.50;;;;;;5067497;28;19912;-78
2021/08/15 13:21:00;;;;;;;;;;;32.10;77.80;;;;;;5068009;28;19917;-78
2021/08/15 13:23:26;;;;;;;;;;;31.80;78.40;;;;;;5052613;28;19936;-78
2021/08/15 13:25:51;;;;;;;;;;;32.10;78.00;;;;;;5067844;28;19904;-78
2021/08/15 13:28:26;;;;;;;;;;;32.00;78.60;;;;;;5051195;28;19974;-78
2021/08/15 13:31:02;;;;;;;;;;;32.10;77.50;;;;;;5053247;28;19905;-78
2021/08/15 13:33:27;;;;;;;;;;;33.00;77.20;;;;;;5068278;28;19905;-78
2021/08/15 13:35:53;;;;;;;;;;;32.90;78.30;;;;;;5052644;28;19912;-78
2021/08/15 13:38:19;;;;;;;;;;;33.60;77.20;;;;;;5051716;28;19909;-78
2021/08/15 13:40:44;;;;;;;;;;;32.90;75.10;;;;;;5052018;28;20378;-78
2021/08/15 13:43:10;;;;;;;;;;;31.80;78.50;;;;;;5050847;28;19905;-78
2021/08/15 13:45:35;;;;;;;;;;;31.90;77.70;;;;;;5051561;28;19950;-78
2021/08/15 13:48:01;;;;;;;;;;;32.00;77.70;;;;;;5051958;28;19944;-78
2021/08/15 13:50:26;;;;;;;;;;;31.30;80.40;;;;;;5051219;28;19971;-78
2021/08/15 13:52:52;;;;;;;;;;;31.70;78.80;;;;;;5051250;28;19928;-78
2021/08/15 13:55:18;;;;;;;;;;;32.70;77.70;;;;;;5052653;28;19999;-78
2021/08/15 13:57:44;;;;;;;;;;;33.00;76.90;;;;;;5067776;28;19948;-78
2021/08/15 14:00:10;;;;;;;;;;;32.00;77.70;;;;;;5051034;28;19912;-78
2021/08/15 14:02:36;;;;;;;;;;;31.60;80.20;;;;;;5052743;28;19999;-78
2021/08/15 14:05:02;;;;;;;;;;;31.10;81.60;;;;;;5051666;28;19951;-78
2021/08/15 14:07:27;;;;;;;;;;;30.60;81.40;;;;;;5067714;28;19905;-78
2021/08/15 14:09:53;;;;;;;;;;;30.70;82.00;;;;;;5052203;28;19992;-78
2021/08/15 14:12:18;;;;;;;;;;;30.80;81.80;;;;;;5050984;28;19905;-78
2021/08/15 14:14:44;;;;;;;;;;;31.40;81.40;;;;;;5068629;28;19912;-78